Maribella — 9HA2052 — position and weather

sailwx.info

Track history (hours):
 
Tides and Currents Weather Stations Pressure Air Temp Water Temp Dewpoint Dewpoint Depression Visibility Wind Speed Wind Dir Waves Ship Positions

Maribella

Last reported at 2018-May-08 01:46 UTC. Time now 2018-Jun-22 13:26 UTC.
Position N 22°12' E 119°52'.
Warning: this ship's position is 45 days out of date.

Length 225 m; draft 7.6 m.

Type: Cargo ship. MMSI: 249876000.

Date/timePositionNaut miles runAvg speedWind from/ knotsBaromVisibWave heightAir tempDewpointWater temp
2018-May-08 01:46N 22°12' E 119°52'411.9
2018-May-08 01:26N 22°16' E 119°52'512.0
2018-May-08 01:00N 22°22' E 119°51'611.3
2018-May-08 00:30N 22°27' E 119°53'1011.8
2018-May-07 23:40N 22°37' E 119°53'212.0
2018-May-07 23:30N 22°39' E 119°53'612.0
2018-May-07 23:00N 22°45' E 119°53'612.0
2018-May-07 22:30N 22°51' E 119°54'2311.4
2018-May-07 20:30N 23°14' E 119°55'510.2
2018-May-07 20:00N 23°19' E 119°55'5 9.7
2018-May-07 19:30N 23°24' E 119°55'5 9.2
2018-May-07 18:59N 23°28' E 119°56'5 8.3
2018-May-07 18:25N 23°33' E 119°57'3 7.9
2018-May-07 18:01N 23°36' E 119°58'4 8.1
2018-May-07 17:30N 23°40' E 119°59'13 1.2
2018-May-07 06:55N 23°48' E 120°11'0 0.0
2018-May-07 06:28N 23°48' E 120°11'0 0.0
2018-May-07 04:13N 23°48' E 120°11'0 0.0
2018-May-07 03:55N 23°48' E 120°11'0 0.0
2018-May-05 07:13N 23°48' E 120°11'0 0.0
2018-May-05 06:49N 23°48' E 120°11'0 0.0
2018-May-05 06:28N 23°48' E 120°11'0 0.0
2018-May-05 05:55N 23°48' E 120°11'0 0.0
2018-May-05 05:25N 23°48' E 120°11'0 0.0
2018-May-04 21:04N 23°48' E 120°11'0 0.0
2018-May-04 20:52N 23°48' E 120°11'0 0.0
2018-May-04 17:04N 23°48' E 120°11'0 0.0
2018-May-04 16:52N 23°48' E 120°11'0 0.0
2018-May-04 16:25N 23°48' E 120°11'0 0.0
2018-May-04 13:28N 23°48' E 120°11'0 0.0
2018-May-04 12:52N 23°48' E 120°11'0 0.0
2018-May-04 12:25N 23°48' E 120°11'0 0.0
2018-May-04 11:49N 23°48' E 120°11'0 0.0
2018-May-04 11:22N 23°48' E 120°11'0 0.0
2018-May-04 10:58N 23°48' E 120°11'0 0.0
2018-May-04 10:25N 23°48' E 120°11'0 0.0
2018-May-04 09:58N 23°48' E 120°11'0 0.0
2018-May-04 09:19N 23°48' E 120°11'0 0.0
2018-May-04 08:52N 23°48' E 120°11'0 0.0
2018-May-04 08:28N 23°48' E 120°11'0 0.0
2018-May-04 07:55N 23°48' E 120°11'0 0.0
2018-May-02 14:43N 23°48' E 120°11'  
2018-Apr-30 03:35N 23°39' E 119°57'111.4
2018-Apr-30 03:29N 23°38' E 119°57'813.7
2018-Apr-30 02:54N 23°31' E 119°53'614.6
2018-Apr-30 02:30N 23°25' E 119°51'  
Track history (hours):
 
Tides and Currents Weather Stations Pressure Air Temp Water Temp Dewpoint Dewpoint Depression Visibility Wind Speed Wind Dir Waves Ship Positions

Maribella

Last reported at 2018-May-08 01:46 UTC. Time now 2018-Jun-22 13:26 UTC.
Position N 22°12' E 119°52'.
Warning: this ship's position is 45 days out of date.

Length 225 m; draft 7.6 m.

Type: Cargo ship. MMSI: 249876000.

Date/timePositionNaut miles runAvg speedWind from/ knotsBaromVisibWave heightAir tempDewpointWater temp
2018-May-08 01:46N 22°12' E 119°52'411.9
2018-May-08 01:26N 22°16' E 119°52'512.0
2018-May-08 01:00N 22°22' E 119°51'611.3
2018-May-08 00:30N 22°27' E 119°53'1011.8
2018-May-07 23:40N 22°37' E 119°53'212.0
2018-May-07 23:30N 22°39' E 119°53'612.0
2018-May-07 23:00N 22°45' E 119°53'612.0
2018-May-07 22:30N 22°51' E 119°54'2311.4
2018-May-07 20:30N 23°14' E 119°55'510.2
2018-May-07 20:00N 23°19' E 119°55'5 9.7
2018-May-07 19:30N 23°24' E 119°55'5 9.2
2018-May-07 18:59N 23°28' E 119°56'5 8.3
2018-May-07 18:25N 23°33' E 119°57'3 7.9
2018-May-07 18:01N 23°36' E 119°58'4 8.1
2018-May-07 17:30N 23°40' E 119°59'13 1.2
2018-May-07 06:55N 23°48' E 120°11'0 0.0
2018-May-07 06:28N 23°48' E 120°11'0 0.0
2018-May-07 04:13N 23°48' E 120°11'0 0.0
2018-May-07 03:55N 23°48' E 120°11'0 0.0
2018-May-05 07:13N 23°48' E 120°11'0 0.0
2018-May-05 06:49N 23°48' E 120°11'0 0.0
2018-May-05 06:28N 23°48' E 120°11'0 0.0
2018-May-05 05:55N 23°48' E 120°11'0 0.0
2018-May-05 05:25N 23°48' E 120°11'0 0.0
2018-May-04 21:04N 23°48' E 120°11'0 0.0
2018-May-04 20:52N 23°48' E 120°11'0 0.0
2018-May-04 17:04N 23°48' E 120°11'0 0.0
2018-May-04 16:52N 23°48' E 120°11'0 0.0
2018-May-04 16:25N 23°48' E 120°11'0 0.0
2018-May-04 13:28N 23°48' E 120°11'0 0.0
2018-May-04 12:52N 23°48' E 120°11'0 0.0
2018-May-04 12:25N 23°48' E 120°11'0 0.0
2018-May-04 11:49N 23°48' E 120°11'0 0.0
2018-May-04 11:22N 23°48' E 120°11'0 0.0
2018-May-04 10:58N 23°48' E 120°11'0 0.0
2018-May-04 10:25N 23°48' E 120°11'0 0.0
2018-May-04 09:58N 23°48' E 120°11'0 0.0
2018-May-04 09:19N 23°48' E 120°11'0 0.0
2018-May-04 08:52N 23°48' E 120°11'0 0.0
2018-May-04 08:28N 23°48' E 120°11'0 0.0
2018-May-04 07:55N 23°48' E 120°11'0 0.0
2018-May-02 14:43N 23°48' E 120°11'  
2018-Apr-30 03:35N 23°39' E 119°57'111.4
2018-Apr-30 03:29N 23°38' E 119°57'813.7
2018-Apr-30 02:54N 23°31' E 119°53'614.6
2018-Apr-30 02:30N 23°25' E 119°51'  

Dump ship's entire track history